CAM weather

Camiri Airport
Camiri, Santa Cruz Department, Bolivia

Public forecast

Using degrees Celsius for public forecast. Weather courtesy of forecast.io.

Current aviation weather report (METAR) for Camiri Airport

Retrieved 2019/10/22 12:00 UTC (23 minutes ago):

SLCA 221200Z 00000KT 9999 BKN080 16/14 Q1021

Closest aviation forecast (TAF) to Camiri Airport

Closest forecast is Capitan Oriel Lea Plaza Airport, 114.0 nm (211.1 km) SW. Retrieved 2019/10/22 12:40 UTC (0 seconds ago):

TAF SLTJ 221000Z 2212/2312 00000KT 9999 NSC TX26/2219Z TN08/2311Z BECMG 2215/2217 14010KT SCT030 BECMG 2300/2302 00000KT